sensor_id;sensor_type;location;lat;lon;timestamp;temperature;humidity
46364;DHT22;32071;49.036;9.344;2023-08-12T00:00:16;18.00;99.90
46364;DHT22;32071;49.036;9.344;2023-08-12T00:02:44;18.00;99.90
46364;DHT22;32071;49.036;9.344;2023-08-12T00:05:11;18.00;99.90
46364;DHT22;32071;49.036;9.344;2023-08-12T00:07:37;18.00;99.90
46364;DHT22;32071;49.036;9.344;2023-08-12T00:10:04;18.00;99.90
46364;DHT22;32071;49.036;9.344;2023-08-12T00:12:31;18.00;99.90
46364;DHT22;32071;49.036;9.344;2023-08-12T00:14:57;17.90;99.90
46364;DHT22;32071;49.036;9.344;2023-08-12T00:17:23;17.90;99.90
46364;DHT22;32071;49.036;9.344;2023-08-12T00:19:48;17.90;99.90
46364;DHT22;32071;49.036;9.344;2023-08-12T00:22:14;17.90;99.90
46364;DHT22;32071;49.036;9.344;2023-08-12T00:24:40;17.90;99.90
46364;DHT22;32071;49.036;9.344;2023-08-12T00:27:06;17.90;99.90
46364;DHT22;32071;49.036;9.344;2023-08-12T00:29:35;17.80;99.90
46364;DHT22;32071;49.036;9.344;2023-08-12T00:32:01;17.80;99.90
46364;DHT22;32071;49.036;9.344;2023-08-12T00:34:26;17.80;99.90
46364;DHT22;32071;49.036;9.344;2023-08-12T00:36:52;17.80;99.90
46364;DHT22;32071;49.036;9.344;2023-08-12T00:39:18;17.70;99.90
46364;DHT22;32071;49.036;9.344;2023-08-12T00:41:43;17.70;99.90
46364;DHT22;32071;49.036;9.344;2023-08-12T00:44:09;17.70;99.90
46364;DHT22;32071;49.036;9.344;2023-08-12T00:46:36;17.70;99.90
46364;DHT22;32071;49.036;9.344;2023-08-12T00:49:03;17.70;99.90
46364;DHT22;32071;49.036;9.344;2023-08-12T00:51:29;17.70;99.90
46364;DHT22;32071;49.036;9.344;2023-08-12T00:53:57;17.70;99.90
46364;DHT22;32071;49.036;9.344;2023-08-12T00:56:24;17.70;99.90
46364;DHT22;32071;49.036;9.344;2023-08-12T00:58:51;17.70;99.90
46364;DHT22;32071;49.036;9.344;2023-08-12T01:01:17;17.60;99.90
46364;DHT22;32071;49.036;9.344;2023-08-12T01:03:43;17.60;99.90
46364;DHT22;32071;49.036;9.344;2023-08-12T01:06:08;17.70;99.90
46364;DHT22;32071;49.036;9.344;2023-08-12T01:08:35;17.70;99.90
46364;DHT22;32071;49.036;9.344;2023-08-12T01:11:33;17.60;99.90
46364;DHT22;32071;49.036;9.344;2023-08-12T01:14:08;17.60;99.90
46364;DHT22;32071;49.036;9.344;2023-08-12T01:16:42;17.60;99.90
46364;DHT22;32071;49.036;9.344;2023-08-12T01:19:11;17.50;99.90
46364;DHT22;32071;49.036;9.344;2023-08-12T01:21:41;17.50;99.90
46364;DHT22;32071;49.036;9.344;2023-08-12T01:24:08;17.50;99.90
46364;DHT22;32071;49.036;9.344;2023-08-12T01:26:34;17.50;99.90
46364;DHT22;32071;49.036;9.344;2023-08-12T01:29:00;17.50;99.90
46364;DHT22;32071;49.036;9.344;2023-08-12T01:31:34;17.40;99.90
46364;DHT22;32071;49.036;9.344;2023-08-12T01:34:11;17.40;99.90
46364;DHT22;32071;49.036;9.344;2023-08-12T01:36:39;17.40;99.90
46364;DHT22;32071;49.036;9.344;2023-08-12T01:39:06;17.40;99.90
46364;DHT22;32071;49.036;9.344;2023-08-12T01:41:34;17.30;99.90
46364;DHT22;32071;49.036;9.344;2023-08-12T01:44:02;17.30;99.90
46364;DHT22;32071;49.036;9.344;2023-08-12T01:46:27;17.30;99.90
46364;DHT22;32071;49.036;9.344;2023-08-12T01:48:53;17.30;99.90
46364;DHT22;32071;49.036;9.344;2023-08-12T01:51:19;17.20;99.90
46364;DHT22;32071;49.036;9.344;2023-08-12T01:53:44;17.20;99.90
46364;DHT22;32071;49.036;9.344;2023-08-12T01:56:10;17.20;99.90
46364;DHT22;32071;49.036;9.344;2023-08-12T01:58:35;17.20;99.90
46364;DHT22;32071;49.036;9.344;2023-08-12T02:01:01;17.20;99.90
46364;DHT22;32071;49.036;9.344;2023-08-12T02:03:26;17.20;99.90
46364;DHT22;32071;49.036;9.344;2023-08-12T02:05:52;17.10;99.90
46364;DHT22;32071;49.036;9.344;2023-08-12T02:08:17;17.10;99.90
46364;DHT22;32071;49.036;9.344;2023-08-12T02:10:43;17.10;99.90
46364;DHT22;32071;49.036;9.344;2023-08-12T02:13:08;17.10;99.90
46364;DHT22;32071;49.036;9.344;2023-08-12T02:15:34;17.10;99.90
46364;DHT22;32071;49.036;9.344;2023-08-12T02:18:00;17.10;99.90
46364;DHT22;32071;49.036;9.344;2023-08-12T02:20:25;17.10;99.90
46364;DHT22;32071;49.036;9.344;2023-08-12T02:22:51;17.10;99.90
46364;DHT22;32071;49.036;9.344;2023-08-12T02:25:16;17.00;99.90
46364;DHT22;32071;49.036;9.344;2023-08-12T02:27:42;17.00;99.90
46364;DHT22;32071;49.036;9.344;2023-08-12T02:30:08;17.00;99.90
46364;DHT22;32071;49.036;9.344;2023-08-12T02:32:33;17.10;99.90
46364;DHT22;32071;49.036;9.344;2023-08-12T02:34:59;17.10;99.90
46364;DHT22;32071;49.036;9.344;2023-08-12T02:37:24;17.10;99.90
46364;DHT22;32071;49.036;9.344;2023-08-12T02:39:50;17.10;99.90
46364;DHT22;32071;49.036;9.344;2023-08-12T02:42:15;17.10;99.90
46364;DHT22;32071;49.036;9.344;2023-08-12T02:44:41;17.10;99.90
46364;DHT22;32071;49.036;9.344;2023-08-12T02:47:07;17.10;99.90
46364;DHT22;32071;49.036;9.344;2023-08-12T02:49:32;17.00;99.90
46364;DHT22;32071;49.036;9.344;2023-08-12T02:51:58;17.10;99.90
46364;DHT22;32071;49.036;9.344;2023-08-12T02:54:23;17.10;99.90
46364;DHT22;32071;49.036;9.344;2023-08-12T02:56:50;17.20;99.90
46364;DHT22;32071;49.036;9.344;2023-08-12T02:59:16;17.20;99.90
46364;DHT22;32071;49.036;9.344;2023-08-12T03:01:42;17.20;99.90
46364;DHT22;32071;49.036;9.344;2023-08-12T03:04:08;17.20;99.90
46364;DHT22;32071;49.036;9.344;2023-08-12T03:06:33;17.30;99.90
46364;DHT22;32071;49.036;9.344;2023-08-12T03:08:59;17.30;99.90
46364;DHT22;32071;49.036;9.344;2023-08-12T03:11:24;17.30;99.90
46364;DHT22;32071;49.036;9.344;2023-08-12T03:13:50;17.30;99.90
46364;DHT22;32071;49.036;9.344;2023-08-12T03:16:15;17.30;99.90
46364;DHT22;32071;49.036;9.344;2023-08-12T03:18:41;17.40;99.90
46364;DHT22;32071;49.036;9.344;2023-08-12T03:21:09;17.40;99.90
46364;DHT22;32071;49.036;9.344;2023-08-12T03:23:36;17.40;99.90
46364;DHT22;32071;49.036;9.344;2023-08-12T03:26:02;17.40;99.90
46364;DHT22;32071;49.036;9.344;2023-08-12T03:28:28;17.50;99.90
46364;DHT22;32071;49.036;9.344;2023-08-12T03:30:53;17.50;99.90
46364;DHT22;32071;49.036;9.344;2023-08-12T03:33:19;17.50;99.90
46364;DHT22;32071;49.036;9.344;2023-08-12T03:35:49;17.50;99.90
46364;DHT22;32071;49.036;9.344;2023-08-12T03:38:15;17.50;99.90
46364;DHT22;32071;49.036;9.344;2023-08-12T03:40:42;17.60;99.90
46364;DHT22;32071;49.036;9.344;2023-08-12T03:43:07;17.60;99.90
46364;DHT22;32071;49.036;9.344;2023-08-12T03:45:39;17.60;99.90
46364;DHT22;32071;49.036;9.344;2023-08-12T03:48:05;17.60;99.90
46364;DHT22;32071;49.036;9.344;2023-08-12T03:50:34;17.60;99.90
46364;DHT22;32071;49.036;9.344;2023-08-12T03:53:00;17.60;99.90
46364;DHT22;32071;49.036;9.344;2023-08-12T03:55:26;17.60;99.90
46364;DHT22;32071;49.036;9.344;2023-08-12T03:57:51;17.60;99.90
46364;DHT22;32071;49.036;9.344;2023-08-12T04:00:17;17.60;99.90
46364;DHT22;32071;49.036;9.344;2023-08-12T04:02:43;17.70;99.90
46364;DHT22;32071;49.036;9.344;2023-08-12T04:05:08;17.70;99.90
46364;DHT22;32071;49.036;9.344;2023-08-12T04:07:36;17.70;99.90
46364;DHT22;32071;49.036;9.344;2023-08-12T04:10:02;17.70;99.90
46364;DHT22;32071;49.036;9.344;2023-08-12T04:12:27;17.80;99.90
46364;DHT22;32071;49.036;9.344;2023-08-12T04:14:53;17.80;99.90
46364;DHT22;32071;49.036;9.344;2023-08-12T04:17:18;17.80;99.90
46364;DHT22;32071;49.036;9.344;2023-08-12T04:19:44;17.90;99.90
46364;DHT22;32071;49.036;9.344;2023-08-12T04:22:10;17.90;99.90
46364;DHT22;32071;49.036;9.344;2023-08-12T04:24:35;17.90;99.90
46364;DHT22;32071;49.036;9.344;2023-08-12T04:27:01;17.90;99.90
46364;DHT22;32071;49.036;9.344;2023-08-12T04:29:26;17.90;99.90
46364;DHT22;32071;49.036;9.344;2023-08-12T04:31:52;17.90;99.90
46364;DHT22;32071;49.036;9.344;2023-08-12T04:34:18;18.00;99.90
46364;DHT22;32071;49.036;9.344;2023-08-12T04:36:44;18.00;99.90
46364;DHT22;32071;49.036;9.344;2023-08-12T04:39:09;18.00;99.90
46364;DHT22;32071;49.036;9.344;2023-08-12T04:41:35;18.00;99.90
46364;DHT22;32071;49.036;9.344;2023-08-12T04:44:04;18.10;99.90
46364;DHT22;32071;49.036;9.344;2023-08-12T04:46:30;18.10;99.90
46364;DHT22;32071;49.036;9.344;2023-08-12T04:48:55;18.10;99.90
46364;DHT22;32071;49.036;9.344;2023-08-12T04:51:21;18.10;99.90
46364;DHT22;32071;49.036;9.344;2023-08-12T04:53:46;18.20;99.90
46364;DHT22;32071;49.036;9.344;2023-08-12T04:56:12;18.20;99.90
46364;DHT22;32071;49.036;9.344;2023-08-12T04:58:37;18.30;99.90
46364;DHT22;32071;49.036;9.344;2023-08-12T05:01:03;18.30;99.90
46364;DHT22;32071;49.036;9.344;2023-08-12T05:03:29;18.30;99.90
46364;DHT22;32071;49.036;9.344;2023-08-12T05:05:55;18.30;99.90
46364;DHT22;32071;49.036;9.344;2023-08-12T05:08:20;18.30;99.90
46364;DHT22;32071;49.036;9.344;2023-08-12T05:10:49;18.30;99.90
46364;DHT22;32071;49.036;9.344;2023-08-12T05:13:15;18.40;99.90
46364;DHT22;32071;49.036;9.344;2023-08-12T05:15:41;18.40;99.90
46364;DHT22;32071;49.036;9.344;2023-08-12T05:18:06;18.50;99.90
46364;DHT22;32071;49.036;9.344;2023-08-12T05:20:32;18.50;99.90
46364;DHT22;32071;49.036;9.344;2023-08-12T05:22:57;18.50;99.90
46364;DHT22;32071;49.036;9.344;2023-08-12T05:25:23;18.50;99.90
46364;DHT22;32071;49.036;9.344;2023-08-12T05:27:49;18.60;99.90
46364;DHT22;32071;49.036;9.344;2023-08-12T05:30:15;18.70;99.90
46364;DHT22;32071;49.036;9.344;2023-08-12T05:32:40;18.80;99.90
46364;DHT22;32071;49.036;9.344;2023-08-12T05:35:06;18.80;99.90
46364;DHT22;32071;49.036;9.344;2023-08-12T05:37:32;18.80;99.90
46364;DHT22;32071;49.036;9.344;2023-08-12T05:39:57;18.90;99.90
46364;DHT22;32071;49.036;9.344;2023-08-12T05:42:23;19.00;99.90
46364;DHT22;32071;49.036;9.344;2023-08-12T05:44:49;19.00;99.90
46364;DHT22;32071;49.036;9.344;2023-08-12T05:47:14;19.10;99.90
46364;DHT22;32071;49.036;9.344;2023-08-12T05:49:40;19.10;99.90
46364;DHT22;32071;49.036;9.344;2023-08-12T05:52:06;19.20;99.90
46364;DHT22;32071;49.036;9.344;2023-08-12T05:54:32;19.30;99.90
46364;DHT22;32071;49.036;9.344;2023-08-12T05:56:58;19.40;99.90
46364;DHT22;32071;49.036;9.344;2023-08-12T05:59:23;19.50;99.90
46364;DHT22;32071;49.036;9.344;2023-08-12T06:01:49;19.50;99.90
46364;DHT22;32071;49.036;9.344;2023-08-12T06:04:14;19.50;99.90
46364;DHT22;32071;49.036;9.344;2023-08-12T06:06:40;19.60;99.90
46364;DHT22;32071;49.036;9.344;2023-08-12T06:09:06;19.60;99.90
46364;DHT22;32071;49.036;9.344;2023-08-12T06:11:31;19.70;99.90
46364;DHT22;32071;49.036;9.344;2023-08-12T06:13:57;19.80;99.90
46364;DHT22;32071;49.036;9.344;2023-08-12T06:16:22;19.90;99.90
46364;DHT22;32071;49.036;9.344;2023-08-12T06:18:48;20.10;99.90
46364;DHT22;32071;49.036;9.344;2023-08-12T06:21:13;20.20;99.90
46364;DHT22;32071;49.036;9.344;2023-08-12T06:23:39;20.30;99.90
46364;DHT22;32071;49.036;9.344;2023-08-12T06:26:04;20.30;99.90
46364;DHT22;32071;49.036;9.344;2023-08-12T06:28:30;20.30;99.90
46364;DHT22;32071;49.036;9.344;2023-08-12T06:30:56;20.40;99.90
46364;DHT22;32071;49.036;9.344;2023-08-12T06:33:21;20.40;99.90
46364;DHT22;32071;49.036;9.344;2023-08-12T06:35:47;20.40;99.90
46364;DHT22;32071;49.036;9.344;2023-08-12T06:38:12;20.50;99.90
46364;DHT22;32071;49.036;9.344;2023-08-12T06:40:39;20.70;99.90
46364;DHT22;32071;49.036;9.344;2023-08-12T06:43:04;20.70;99.90
46364;DHT22;32071;49.036;9.344;2023-08-12T06:45:30;20.80;99.90
46364;DHT22;32071;49.036;9.344;2023-08-12T06:47:55;20.90;99.90
46364;DHT22;32071;49.036;9.344;2023-08-12T06:50:21;20.90;99.90
46364;DHT22;32071;49.036;9.344;2023-08-12T06:52:47;21.10;99.90
46364;DHT22;32071;49.036;9.344;2023-08-12T06:55:12;21.20;99.90
46364;DHT22;32071;49.036;9.344;2023-08-12T06:57:38;21.30;99.90
46364;DHT22;32071;49.036;9.344;2023-08-12T07:00:04;21.40;99.90
46364;DHT22;32071;49.036;9.344;2023-08-12T07:02:30;21.60;99.90
46364;DHT22;32071;49.036;9.344;2023-08-12T07:04:56;21.70;99.90
46364;DHT22;32071;49.036;9.344;2023-08-12T07:07:21;21.70;99.90
46364;DHT22;32071;49.036;9.344;2023-08-12T07:09:47;21.80;99.90
46364;DHT22;32071;49.036;9.344;2023-08-12T07:12:13;21.90;99.90
46364;DHT22;32071;49.036;9.344;2023-08-12T07:14:38;22.00;99.90
46364;DHT22;32071;49.036;9.344;2023-08-12T07:17:04;22.10;99.90
46364;DHT22;32071;49.036;9.344;2023-08-12T07:19:29;22.10;99.90
46364;DHT22;32071;49.036;9.344;2023-08-12T07:21:55;22.20;99.90
46364;DHT22;32071;49.036;9.344;2023-08-12T07:24:20;22.30;99.90
46364;DHT22;32071;49.036;9.344;2023-08-12T07:26:46;22.30;99.90
46364;DHT22;32071;49.036;9.344;2023-08-12T07:29:12;22.30;99.90
46364;DHT22;32071;49.036;9.344;2023-08-12T07:31:37;22.30;99.90
46364;DHT22;32071;49.036;9.344;2023-08-12T07:34:03;22.40;99.90
46364;DHT22;32071;49.036;9.344;2023-08-12T07:36:28;22.50;99.90
46364;DHT22;32071;49.036;9.344;2023-08-12T07:38:54;22.60;99.90
46364;DHT22;32071;49.036;9.344;2023-08-12T07:41:19;22.60;99.90
46364;DHT22;32071;49.036;9.344;2023-08-12T07:43:45;22.70;99.90
46364;DHT22;32071;49.036;9.344;2023-08-12T07:46:11;22.70;99.90
46364;DHT22;32071;49.036;9.344;2023-08-12T07:48:36;22.80;99.90
46364;DHT22;32071;49.036;9.344;2023-08-12T07:51:03;22.90;99.90
46364;DHT22;32071;49.036;9.344;2023-08-12T07:53:29;23.00;99.90
46364;DHT22;32071;49.036;9.344;2023-08-12T07:55:54;23.10;99.90
46364;DHT22;32071;49.036;9.344;2023-08-12T07:58:20;23.40;99.90
46364;DHT22;32071;49.036;9.344;2023-08-12T08:00:45;23.60;99.90
46364;DHT22;32071;49.036;9.344;2023-08-12T08:03:11;23.80;99.90
46364;DHT22;32071;49.036;9.344;2023-08-12T08:05:40;24.10;99.90
46364;DHT22;32071;49.036;9.344;2023-08-12T08:08:06;24.30;99.90
46364;DHT22;32071;49.036;9.344;2023-08-12T08:10:32;24.50;99.90
46364;DHT22;32071;49.036;9.344;2023-08-12T08:12:57;24.50;99.90
46364;DHT22;32071;49.036;9.344;2023-08-12T08:15:23;24.50;99.90
46364;DHT22;32071;49.036;9.344;2023-08-12T08:17:48;24.40;99.90
46364;DHT22;32071;49.036;9.344;2023-08-12T08:20:14;24.20;99.90
46364;DHT22;32071;49.036;9.344;2023-08-12T08:22:39;24.00;99.90
46364;DHT22;32071;49.036;9.344;2023-08-12T08:25:05;24.00;99.90
46364;DHT22;32071;49.036;9.344;2023-08-12T08:27:31;24.00;99.90
46364;DHT22;32071;49.036;9.344;2023-08-12T08:29:57;24.10;99.90
46364;DHT22;32071;49.036;9.344;2023-08-12T08:32:23;24.30;99.90
46364;DHT22;32071;49.036;9.344;2023-08-12T08:34:48;24.50;99.90
46364;DHT22;32071;49.036;9.344;2023-08-12T08:37:14;24.60;99.90
46364;DHT22;32071;49.036;9.344;2023-08-12T08:39:39;24.70;99.90
46364;DHT22;32071;49.036;9.344;2023-08-12T08:42:05;24.70;99.90
46364;DHT22;32071;49.036;9.344;2023-08-12T08:44:33;24.70;99.90
46364;DHT22;32071;49.036;9.344;2023-08-12T08:46:59;24.80;99.90
46364;DHT22;32071;49.036;9.344;2023-08-12T08:49:25;24.70;99.90
46364;DHT22;32071;49.036;9.344;2023-08-12T08:51:52;24.70;99.90
46364;DHT22;32071;49.036;9.344;2023-08-12T08:54:19;24.70;99.90
46364;DHT22;32071;49.036;9.344;2023-08-12T08:56:46;24.70;99.90
46364;DHT22;32071;49.036;9.344;2023-08-12T08:59:13;24.70;99.90
46364;DHT22;32071;49.036;9.344;2023-08-12T09:01:39;24.80;99.90
46364;DHT22;32071;49.036;9.344;2023-08-12T09:04:06;24.90;99.90
46364;DHT22;32071;49.036;9.344;2023-08-12T09:06:32;25.00;99.90
46364;DHT22;32071;49.036;9.344;2023-08-12T09:09:00;25.30;99.90
46364;DHT22;32071;49.036;9.344;2023-08-12T09:11:26;25.40;99.90
46364;DHT22;32071;49.036;9.344;2023-08-12T09:13:53;25.50;99.90
46364;DHT22;32071;49.036;9.344;2023-08-12T09:16:18;25.60;99.90
46364;DHT22;32071;49.036;9.344;2023-08-12T09:18:44;25.60;99.90
46364;DHT22;32071;49.036;9.344;2023-08-12T09:21:11;25.60;99.90
46364;DHT22;32071;49.036;9.344;2023-08-12T09:23:41;25.80;99.90
46364;DHT22;32071;49.036;9.344;2023-08-12T09:26:19;25.80;99.90
46364;DHT22;32071;49.036;9.344;2023-08-12T09:28:46;25.80;99.90
46364;DHT22;32071;49.036;9.344;2023-08-12T09:33:48;25.70;99.90
46364;DHT22;32071;49.036;9.344;2023-08-12T09:36:13;25.60;99.90
46364;DHT22;32071;49.036;9.344;2023-08-12T09:38:39;25.50;99.90
46364;DHT22;32071;49.036;9.344;2023-08-12T09:41:05;25.40;99.90
46364;DHT22;32071;49.036;9.344;2023-08-12T09:43:31;25.40;99.90
46364;DHT22;32071;49.036;9.344;2023-08-12T09:45:57;25.50;99.90
46364;DHT22;32071;49.036;9.344;2023-08-12T09:48:25;25.60;99.90
46364;DHT22;32071;49.036;9.344;2023-08-12T09:50:52;25.70;99.90
46364;DHT22;32071;49.036;9.344;2023-08-12T09:53:18;25.70;99.90
46364;DHT22;32071;49.036;9.344;2023-08-12T09:55:47;25.80;99.90
46364;DHT22;32071;49.036;9.344;2023-08-12T09:58:16;25.90;99.90
46364;DHT22;32071;49.036;9.344;2023-08-12T10:00:43;26.10;99.90
46364;DHT22;32071;49.036;9.344;2023-08-12T10:03:11;26.10;99.90
46364;DHT22;32071;49.036;9.344;2023-08-12T10:05:40;26.10;99.90
46364;DHT22;32071;49.036;9.344;2023-08-12T10:08:07;26.30;99.90
46364;DHT22;32071;49.036;9.344;2023-08-12T10:10:35;26.50;99.90
46364;DHT22;32071;49.036;9.344;2023-08-12T10:13:01;26.50;99.90
46364;DHT22;32071;49.036;9.344;2023-08-12T10:15:27;26.50;99.90
46364;DHT22;32071;49.036;9.344;2023-08-12T10:17:55;26.60;99.90
46364;DHT22;32071;49.036;9.344;2023-08-12T10:20:23;26.80;99.90
46364;DHT22;32071;49.036;9.344;2023-08-12T10:22:50;26.80;99.90
46364;DHT22;32071;49.036;9.344;2023-08-12T10:25:18;26.90;99.90
46364;DHT22;32071;49.036;9.344;2023-08-12T10:27:44;27.20;99.90
46364;DHT22;32071;49.036;9.344;2023-08-12T10:30:09;27.30;99.90
46364;DHT22;32071;49.036;9.344;2023-08-12T10:32:36;27.60;99.90
46364;DHT22;32071;49.036;9.344;2023-08-12T10:35:02;28.00;99.90
46364;DHT22;32071;49.036;9.344;2023-08-12T10:37:31;28.40;99.90
46364;DHT22;32071;49.036;9.344;2023-08-12T10:39:57;28.80;99.90
46364;DHT22;32071;49.036;9.344;2023-08-12T10:42:48;29.10;99.90
46364;DHT22;32071;49.036;9.344;2023-08-12T10:45:15;29.20;99.90
46364;DHT22;32071;49.036;9.344;2023-08-12T10:47:49;29.30;99.90
46364;DHT22;32071;49.036;9.344;2023-08-12T10:50:21;29.10;99.90
46364;DHT22;32071;49.036;9.344;2023-08-12T10:52:48;28.80;99.90
46364;DHT22;32071;49.036;9.344;2023-08-12T10:55:23;28.60;99.90
46364;DHT22;32071;49.036;9.344;2023-08-12T10:57:53;28.40;99.90
46364;DHT22;32071;49.036;9.344;2023-08-12T11:00:24;28.20;99.90
46364;DHT22;32071;49.036;9.344;2023-08-12T11:02:52;28.10;99.90
46364;DHT22;32071;49.036;9.344;2023-08-12T11:05:18;28.20;99.90
46364;DHT22;32071;49.036;9.344;2023-08-12T11:07:58;28.30;99.90
46364;DHT22;32071;49.036;9.344;2023-08-12T11:10:30;28.50;99.90
46364;DHT22;32071;49.036;9.344;2023-08-12T11:12:56;28.70;99.90
46364;DHT22;32071;49.036;9.344;2023-08-12T11:15:43;28.90;99.90
46364;DHT22;32071;49.036;9.344;2023-08-12T11:18:24;29.30;99.90
46364;DHT22;32071;49.036;9.344;2023-08-12T11:20:51;29.40;99.90
46364;DHT22;32071;49.036;9.344;2023-08-12T11:23:17;29.60;99.90
46364;DHT22;32071;49.036;9.344;2023-08-12T11:25:43;29.80;99.90
46364;DHT22;32071;49.036;9.344;2023-08-12T11:28:10;29.90;99.90
46364;DHT22;32071;49.036;9.344;2023-08-12T11:30:35;30.00;99.90
46364;DHT22;32071;49.036;9.344;2023-08-12T11:33:02;30.10;99.90
46364;DHT22;32071;49.036;9.344;2023-08-12T11:35:28;30.10;99.90
46364;DHT22;32071;49.036;9.344;2023-08-12T11:37:57;30.10;99.90
46364;DHT22;32071;49.036;9.344;2023-08-12T11:40:24;30.10;99.90
46364;DHT22;32071;49.036;9.344;2023-08-12T11:42:51;30.10;99.90
46364;DHT22;32071;49.036;9.344;2023-08-12T11:48:18;30.20;99.90
46364;DHT22;32071;49.036;9.344;2023-08-12T11:50:45;29.90;99.90
46364;DHT22;32071;49.036;9.344;2023-08-12T11:53:11;29.60;99.90
46364;DHT22;32071;49.036;9.344;2023-08-12T11:55:36;29.20;99.90
46364;DHT22;32071;49.036;9.344;2023-08-12T11:58:02;29.00;99.90
46364;DHT22;32071;49.036;9.344;2023-08-12T12:00:28;28.70;99.90
46364;DHT22;32071;49.036;9.344;2023-08-12T12:02:55;28.40;99.90
46364;DHT22;32071;49.036;9.344;2023-08-12T12:05:27;28.00;99.90
46364;DHT22;32071;49.036;9.344;2023-08-12T12:07:53;27.50;99.90
46364;DHT22;32071;49.036;9.344;2023-08-12T12:10:37;26.90;99.90
46364;DHT22;32071;49.036;9.344;2023-08-12T12:13:04;26.40;99.90
46364;DHT22;32071;49.036;9.344;2023-08-12T12:15:31;25.80;99.90
46364;DHT22;32071;49.036;9.344;2023-08-12T12:17:58;25.00;99.90
46364;DHT22;32071;49.036;9.344;2023-08-12T12:20:24;24.20;99.90
46364;DHT22;32071;49.036;9.344;2023-08-12T12:22:50;23.60;99.90
46364;DHT22;32071;49.036;9.344;2023-08-12T12:25:17;23.30;99.90
46364;DHT22;32071;49.036;9.344;2023-08-12T12:27:45;23.20;99.90
46364;DHT22;32071;49.036;9.344;2023-08-12T12:30:13;23.00;99.90
46364;DHT22;32071;49.036;9.344;2023-08-12T12:32:39;23.00;99.90
46364;DHT22;32071;49.036;9.344;2023-08-12T12:35:06;22.90;99.90
46364;DHT22;32071;49.036;9.344;2023-08-12T12:37:35;22.90;99.90
46364;DHT22;32071;49.036;9.344;2023-08-12T12:40:01;22.90;99.90
46364;DHT22;32071;49.036;9.344;2023-08-12T12:42:28;23.00;99.90
46364;DHT22;32071;49.036;9.344;2023-08-12T12:44:54;23.00;99.90
46364;DHT22;32071;49.036;9.344;2023-08-12T12:47:19;23.00;99.90
46364;DHT22;32071;49.036;9.344;2023-08-12T12:49:45;22.90;99.90
46364;DHT22;32071;49.036;9.344;2023-08-12T12:52:11;22.80;99.90
46364;DHT22;32071;49.036;9.344;2023-08-12T12:54:36;22.70;99.90
46364;DHT22;32071;49.036;9.344;2023-08-12T12:57:02;22.60;99.90
46364;DHT22;32071;49.036;9.344;2023-08-12T12:59:29;22.50;99.90
46364;DHT22;32071;49.036;9.344;2023-08-12T13:01:55;22.40;99.90
46364;DHT22;32071;49.036;9.344;2023-08-12T13:04:20;22.40;99.90
46364;DHT22;32071;49.036;9.344;2023-08-12T13:06:46;22.30;99.90
46364;DHT22;32071;49.036;9.344;2023-08-12T13:09:11;22.00;99.90
46364;DHT22;32071;49.036;9.344;2023-08-12T13:11:37;21.80;99.90
46364;DHT22;32071;49.036;9.344;2023-08-12T13:14:03;21.80;99.90
46364;DHT22;32071;49.036;9.344;2023-08-12T13:16:29;21.80;99.90
46364;DHT22;32071;49.036;9.344;2023-08-12T13:18:55;21.90;99.90
46364;DHT22;32071;49.036;9.344;2023-08-12T13:21:26;22.00;99.90
46364;DHT22;32071;49.036;9.344;2023-08-12T13:23:52;22.10;99.90
46364;DHT22;32071;49.036;9.344;2023-08-12T13:26:18;22.10;99.90
46364;DHT22;32071;49.036;9.344;2023-08-12T13:28:44;22.30;99.90
46364;DHT22;32071;49.036;9.344;2023-08-12T13:31:10;22.40;99.90
46364;DHT22;32071;49.036;9.344;2023-08-12T13:33:35;22.50;99.90
46364;DHT22;32071;49.036;9.344;2023-08-12T13:36:01;22.60;99.90
46364;DHT22;32071;49.036;9.344;2023-08-12T13:38:26;22.50;99.90
46364;DHT22;32071;49.036;9.344;2023-08-12T13:40:52;22.50;99.90
46364;DHT22;32071;49.036;9.344;2023-08-12T13:43:17;22.50;99.90
46364;DHT22;32071;49.036;9.344;2023-08-12T13:45:43;22.60;99.90
46364;DHT22;32071;49.036;9.344;2023-08-12T13:48:09;22.60;99.90
46364;DHT22;32071;49.036;9.344;2023-08-12T13:50:34;22.60;99.90
46364;DHT22;32071;49.036;9.344;2023-08-12T13:53:00;22.60;99.90
46364;DHT22;32071;49.036;9.344;2023-08-12T13:55:26;22.70;99.90
46364;DHT22;32071;49.036;9.344;2023-08-12T13:57:51;23.00;99.90
46364;DHT22;32071;49.036;9.344;2023-08-12T14:00:18;23.30;99.90
46364;DHT22;32071;49.036;9.344;2023-08-12T14:02:44;23.50;99.90
46364;DHT22;32071;49.036;9.344;2023-08-12T14:05:10;23.80;99.90
46364;DHT22;32071;49.036;9.344;2023-08-12T14:07:36;24.40;99.90
46364;DHT22;32071;49.036;9.344;2023-08-12T14:10:02;24.90;99.90
46364;DHT22;32071;49.036;9.344;2023-08-12T14:12:28;25.10;99.90
46364;DHT22;32071;49.036;9.344;2023-08-12T14:14:53;25.60;99.90
46364;DHT22;32071;49.036;9.344;2023-08-12T14:17:19;26.40;99.90
46364;DHT22;32071;49.036;9.344;2023-08-12T14:19:49;27.40;99.90
46364;DHT22;32071;49.036;9.344;2023-08-12T14:22:15;28.20;99.90
46364;DHT22;32071;49.036;9.344;2023-08-12T14:24:40;28.70;99.90
46364;DHT22;32071;49.036;9.344;2023-08-12T14:27:06;29.00;99.90
46364;DHT22;32071;49.036;9.344;2023-08-12T14:29:31;29.50;99.90
46364;DHT22;32071;49.036;9.344;2023-08-12T14:31:57;30.10;99.90
46364;DHT22;32071;49.036;9.344;2023-08-12T14:34:23;30.80;99.90
46364;DHT22;32071;49.036;9.344;2023-08-12T14:36:49;31.30;99.90
46364;DHT22;32071;49.036;9.344;2023-08-12T14:39:14;31.90;99.90
46364;DHT22;32071;49.036;9.344;2023-08-12T14:41:40;32.00;99.90
46364;DHT22;32071;49.036;9.344;2023-08-12T14:44:06;32.50;99.90
46364;DHT22;32071;49.036;9.344;2023-08-12T14:46:31;32.70;99.90
46364;DHT22;32071;49.036;9.344;2023-08-12T14:51:23;34.90;99.90
46364;DHT22;32071;49.036;9.344;2023-08-12T14:53:48;35.40;99.90
46364;DHT22;32071;49.036;9.344;2023-08-12T14:56:15;35.70;99.90
46364;DHT22;32071;49.036;9.344;2023-08-12T14:58:40;36.30;99.90
46364;DHT22;32071;49.036;9.344;2023-08-12T15:01:06;36.10;99.90
46364;DHT22;32071;49.036;9.344;2023-08-12T15:03:32;35.70;99.90
46364;DHT22;32071;49.036;9.344;2023-08-12T15:06:04;36.30;99.90
46364;DHT22;32071;49.036;9.344;2023-08-12T15:08:30;36.20;99.90
46364;DHT22;32071;49.036;9.344;2023-08-12T15:10:56;35.30;99.90
46364;DHT22;32071;49.036;9.344;2023-08-12T15:13:22;34.40;99.90
46364;DHT22;32071;49.036;9.344;2023-08-12T15:15:49;32.90;99.90
46364;DHT22;32071;49.036;9.344;2023-08-12T15:18:18;31.60;99.90
46364;DHT22;32071;49.036;9.344;2023-08-12T15:20:44;30.50;99.90
46364;DHT22;32071;49.036;9.344;2023-08-12T15:23:10;29.60;99.90
46364;DHT22;32071;49.036;9.344;2023-08-12T15:25:35;28.90;99.90
46364;DHT22;32071;49.036;9.344;2023-08-12T15:28:01;28.10;99.90
46364;DHT22;32071;49.036;9.344;2023-08-12T15:30:28;27.50;99.90
46364;DHT22;32071;49.036;9.344;2023-08-12T15:32:54;27.00;99.90